Time;durP1;ratioP1;P1;durP2;ratioP2;P2;SDS_P1;SDS_P2;PMS_P1;PMS_P2;Temp;Humidity;BMP_temperature;BMP_pressure;BME280_temperature;BME280_humidity;BME280_pressure;Samples;Min_cycle;Max_cycle;Signal;HPM_P1;HPM_P2
2022/10/17 00:02:04;;;;;;;;;;;;;;;16.52;80.81;100782.34;5054592;28;1212;-59
2022/10/17 00:04:29;;;;;;;;;;;;;;;16.52;80.53;100787.84;5055141;28;1953;-60
2022/10/17 00:06:54;;;;;;;;;;;;;;;16.52;80.38;100793.38;5054975;28;931;-60
2022/10/17 00:09:19;;;;;;;;;;;;;;;16.52;80.16;100792.56;5055375;28;782;-59
2022/10/17 00:11:44;;;;;;;;;;;;;;;16.51;80.74;100791.75;5055107;28;1185;-59
2022/10/17 00:14:09;;;;;;;;;;;;;;;16.52;80.60;100789.81;5055027;28;1185;-60
2022/10/17 00:16:36;;;;;;;;;;;;;;;16.52;80.30;100798.91;5054879;28;1358;-59
2022/10/17 00:19:02;;;;;;;;;;;;;;;16.51;80.18;100796.47;5055013;28;832;-59
2022/10/17 00:21:27;;;;;;;;;;;;;;;16.52;80.25;100798.91;5055071;28;1295;-62
2022/10/17 00:23:52;;;;;;;;;;;;;;;16.51;80.87;100796.47;5054983;28;1906;-58
2022/10/17 00:26:18;;;;;;;;;;;;;;;16.51;80.34;100796.47;5054757;28;1039;-60
2022/10/17 00:28:46;;;;;;;;;;;;;;;16.49;80.40;100804.25;5054873;28;947;-59
2022/10/17 00:31:11;;;;;;;;;;;;;;;16.49;80.59;100791.28;5054801;28;1376;-61
2022/10/17 00:33:38;;;;;;;;;;;;;;;16.51;80.83;100790.94;5054726;28;913;-58
2022/10/17 00:36:12;;;;;;;;;;;;;;;16.49;80.28;100798.75;5054658;28;876;-59
2022/10/17 00:38:38;;;;;;;;;;;;;;;15.85;80.43;100682.03;5054577;28;923;-59
2022/10/17 00:41:03;;;;;;;;;;;;;;;16.50;80.14;100794.84;5054670;28;1281;-58
2022/10/17 00:43:29;;;;;;;;;;;;;;;16.49;80.42;100794.03;5054490;28;1893;-60
2022/10/17 00:45:54;;;;;;;;;;;;;;;16.48;80.51;100792.41;5054207;28;865;-61
2022/10/17 00:48:21;;;;;;;;;;;;;;;16.49;80.14;100795.97;5054433;28;939;-60
2022/10/17 00:50:47;;;;;;;;;;;;;;;16.48;80.69;100786.88;5054600;28;797;-61
2022/10/17 00:53:13;;;;;;;;;;;;;;;16.48;80.05;100789.63;5054239;28;1163;-59
2022/10/17 00:55:45;;;;;;;;;;;;;;;16.47;80.67;100790.75;5054382;28;798;-58
2022/10/17 00:58:10;;;;;;;;;;;;;;;16.48;80.15;100789.63;5054275;28;896;-60
2022/10/17 01:00:35;;;;;;;;;;;;;;;16.49;80.11;100795.97;5054121;28;864;-60
2022/10/17 01:03:01;;;;;;;;;;;;;;;16.48;80.05;100794.34;5054032;28;1964;-60
2022/10/17 01:05:26;;;;;;;;;;;;;;;16.48;80.20;100797.09;5054078;28;984;-61
2022/10/17 01:07:52;;;;;;;;;;;;;;;16.47;80.70;100792.69;5053808;28;900;-59
2022/10/17 01:10:18;;;;;;;;;;;;;;;16.47;80.50;100788.00;5054160;28;912;-58
2022/10/17 01:13:00;;;;;;;;;;;;;;;16.46;80.62;100793.81;5052868;28;1294;-59
2022/10/17 01:15:25;;;;;;;;;;;;;;;16.45;80.83;100793.00;5053891;28;829;-60
2022/10/17 01:18:07;;;;;;;;;;;;;;;16.45;80.61;100787.47;5053569;28;1000;-61
2022/10/17 01:20:50;;;;;;;;;;;;;;;16.45;80.08;100781.97;5053842;28;980;-58
2022/10/17 01:23:34;;;;;;;;;;;;;;;16.45;80.85;100781.97;5053542;28;1969;-61
2022/10/17 01:26:15;;;;;;;;;;;;;;;16.45;80.19;100786.66;5053093;28;975;-60
2022/10/17 01:28:40;;;;;;;;;;;;;;;16.44;80.23;100785.84;5053599;28;932;-59
2022/10/17 01:31:12;;;;;;;;;;;;;;;16.45;80.34;100792.19;5053536;28;1200;-60
2022/10/17 01:33:46;;;;;;;;;;;;;;;16.43;80.56;100784.22;5053593;28;900;-61
2022/10/17 01:36:19;;;;;;;;;;;;;;;16.44;80.83;100782.25;5053243;28;808;-60
2022/10/17 01:38:48;;;;;;;;;;;;;;;16.43;80.13;100781.44;5053390;28;945;-61
2022/10/17 01:41:18;;;;;;;;;;;;;;;16.43;80.42;100786.97;5053423;28;1219;-60
2022/10/17 01:43:47;;;;;;;;;;;;;;;16.44;80.40;100779.50;5053430;28;1967;-61
2022/10/17 01:46:34;;;;;;;;;;;;;;;16.44;80.31;100785.03;5053338;28;1055;-59
2022/10/17 01:49:00;;;;;;;;;;;;;;;16.43;80.20;100783.38;5053387;28;828;-60
2022/10/17 01:51:32;;;;;;;;;;;;;;;16.43;80.33;100777.88;5053243;28;1382;-60
2022/10/17 01:54:01;;;;;;;;;;;;;;;16.42;80.35;100787.28;5053269;28;913;-60
2022/10/17 01:56:28;;;;;;;;;;;;;;;16.43;80.63;100786.16;5053025;28;1008;-59
2022/10/17 01:58:56;;;;;;;;;;;;;;;16.42;80.11;100776.22;5053200;28;1064;-59
2022/10/17 02:01:23;;;;;;;;;;;;;;;16.42;80.69;100779.00;5053147;28;1318;-59
2022/10/17 02:03:49;;;;;;;;;;;;;;;16.41;80.49;100775.44;5053085;28;1960;-60
2022/10/17 02:06:14;;;;;;;;;;;;;;;16.40;80.80;100768.28;5052974;28;951;-59
2022/10/17 02:08:44;;;;;;;;;;;;;;;16.41;80.27;100766.34;5052989;28;975;-61
2022/10/17 02:11:19;;;;;;;;;;;;;;;16.41;80.15;100764.38;5051797;28;1262;-60
2022/10/17 02:14:11;;;;;;;;;;;;;;;16.40;80.56;100759.16;5053227;28;848;-59
2022/10/17 02:16:37;;;;;;;;;;;;;;;16.39;80.56;100750.06;5052842;28;893;-58
2022/10/17 02:19:20;;;;;;;;;;;;;;;16.40;80.76;100767.47;5053009;28;809;-60
2022/10/17 02:21:54;;;;;;;;;;;;;;;16.39;80.33;100757.53;5052760;28;1313;-61
2022/10/17 02:24:19;;;;;;;;;;;;;;;16.39;80.62;100755.59;5054652;28;1901;-60
2022/10/17 02:26:54;;;;;;;;;;;;;;;16.39;80.67;100750.06;5056888;28;944;-61
2022/10/17 02:29:31;;;;;;;;;;;;;;;16.37;80.39;100746.78;5057262;28;1083;-59
2022/10/17 02:31:59;;;;;;;;;;;;;;;16.36;80.12;100745.16;5056818;28;1310;-58
2022/10/17 02:34:30;;;;;;;;;;;;;;;16.38;80.04;100742.91;5057005;28;1000;-59
2022/10/17 02:36:57;;;;;;;;;;;;;;;16.37;80.42;100738.50;5056661;28;1054;-60
2022/10/17 02:39:23;;;;;;;;;;;;;;;16.38;80.68;100742.91;5056990;28;791;-61
2022/10/17 02:41:51;;;;;;;;;;;;;;;16.36;80.33;100753.44;5056705;28;1209;-59
2022/10/17 02:44:16;;;;;;;;;;;;;;;16.38;80.65;100744.84;5056713;28;1949;-59
2022/10/17 02:46:43;;;;;;;;;;;;;;;16.37;80.08;100755.06;5056576;28;892;-59
2022/10/17 02:49:24;;;;;;;;;;;;;;;16.38;80.20;100756.72;5056584;28;873;-61
2022/10/17 02:51:58;;;;;;;;;;;;;;;16.36;80.34;100753.44;5056557;28;1208;-59
2022/10/17 02:54:36;;;;;;;;;;;;;;;16.35;80.31;100754.56;5056687;28;1063;-60
2022/10/17 02:57:06;;;;;;;;;;;;;;;16.36;80.43;100752.63;5056270;28;870;-59
2022/10/17 02:59:33;;;;;;;;;;;;;;;16.36;80.24;100756.19;5056527;28;984;-61
2022/10/17 03:02:01;;;;;;;;;;;;;;;16.35;80.15;100746.28;5056375;28;1213;-60
2022/10/17 03:04:26;;;;;;;;;;;;;;;16.35;80.38;100746.28;5056494;28;1898;-59
2022/10/17 03:06:51;;;;;;;;;;;;;;;16.36;80.38;100755.38;5056121;28;912;-60
2022/10/17 03:09:17;;;;;;;;;;;;;;;16.36;80.13;100755.38;5056321;28;971;-61
2022/10/17 03:11:42;;;;;;;;;;;;;;;16.35;80.31;100749.03;5056194;28;1212;-60
2022/10/17 03:14:07;;;;;;;;;;;;;;;16.35;80.46;100753.75;5056203;28;984;-60
2022/10/17 03:16:32;;;;;;;;;;;;;;;16.34;80.48;100747.41;5055975;28;1181;-59
2022/10/17 03:18:57;;;;;;;;;;;;;;;16.34;80.16;100743.81;5056089;28;1055;-61
2022/10/17 03:21:22;;;;;;;;;;;;;;;16.33;80.29;100743.03;5055975;28;1290;-59
2022/10/17 03:23:48;;;;;;;;;;;;;;;16.34;80.18;100741.88;5055991;28;1902;-60
2022/10/17 03:26:13;;;;;;;;;;;;;;;16.33;80.20;100745.78;5055710;28;976;-59
2022/10/17 03:28:38;;;;;;;;;;;;;;;16.34;80.04;100749.34;5056147;28;965;-60
2022/10/17 03:31:07;;;;;;;;;;;;;;;16.33;80.07;100751.31;5055833;28;1615;-61
2022/10/17 03:33:32;;;;;;;;;;;;;;;16.33;80.25;100745.78;5055808;28;873;-60
2022/10/17 03:35:57;;;;;;;;;;;;;;;16.33;80.39;100744.97;5054357;28;944;-60
2022/10/17 03:38:23;;;;;;;;;;;;;;;16.35;80.55;100745.47;5055826;28;988;-59
2022/10/17 03:40:55;;;;;;;;;;;;;;;16.32;80.30;100741.41;5055707;28;810;-61
2022/10/17 03:43:20;;;;;;;;;;;;;;;16.32;80.21;100741.41;5055584;28;1968;-61
2022/10/17 03:45:45;;;;;;;;;;;;;;;16.33;80.23;100745.78;5055375;28;794;-61
2022/10/17 03:48:10;;;;;;;;;;;;;;;16.33;80.04;100753.25;5055486;28;984;-59
2022/10/17 03:50:35;;;;;;;;;;;;;;;16.32;80.55;100748.88;5055500;28;830;-60
2022/10/17 03:53:00;;;;;;;;;;;;;;;16.33;80.34;100758.78;5055371;28;1308;-61
2022/10/17 03:55:25;;;;;;;;;;;;;;;16.33;79.68;100756.03;5055502;28;984;-59
2022/10/17 03:57:51;;;;;;;;;;;;;;;16.33;79.95;100758.78;5055173;28;896;-60
2022/10/17 04:00:16;;;;;;;;;;;;;;;16.32;80.57;100771.78;5055343;28;984;-60
2022/10/17 04:02:41;;;;;;;;;;;;;;;16.33;80.48;100767.09;5055229;28;1220;-59
2022/10/17 04:05:06;;;;;;;;;;;;;;;16.32;79.94;100766.25;5055251;28;1945;-58
2022/10/17 04:07:31;;;;;;;;;;;;;;;16.32;80.02;100769.03;5055082;28;976;-60
2022/10/17 04:09:57;;;;;;;;;;;;;;;16.32;79.94;100765.44;5055194;28;871;-60
2022/10/17 04:12:22;;;;;;;;;;;;;;;16.33;80.77;100769.84;5055127;28;1278;-60
2022/10/17 04:14:47;;;;;;;;;;;;;;;16.31;79.96;100770.16;5055223;28;1166;-60
2022/10/17 04:17:12;;;;;;;;;;;;;;;16.31;79.84;100764.63;5054856;28;924;-58
2022/10/17 04:19:37;;;;;;;;;;;;;;;16.32;80.59;100766.25;5055032;28;781;-60
2022/10/17 04:22:02;;;;;;;;;;;;;;;16.35;80.25;100767.56;5054858;28;1149;-59
2022/10/17 04:24:28;;;;;;;;;;;;;;;16.38;80.74;100766.94;5054744;28;1889;-59
2022/10/17 04:26:53;;;;;;;;;;;;;;;16.38;80.82;100781.56;5054624;28;849;-61
2022/10/17 04:29:19;;;;;;;;;;;;;;;16.37;80.89;100774.41;5055084;28;844;-59
2022/10/17 04:31:44;;;;;;;;;;;;;;;16.36;80.51;100780.25;5054734;28;1713;-59
2022/10/17 04:34:09;;;;;;;;;;;;;;;16.37;80.23;100784.66;5054808;28;918;-62
2022/10/17 04:36:34;;;;;;;;;;;;;;;16.35;80.81;100781.38;5054520;28;984;-60
2022/10/17 04:39:02;;;;;;;;;;;;;;;16.35;80.31;100789.66;5054677;28;983;-61
2022/10/17 04:41:27;;;;;;;;;;;;;;;16.36;80.48;100788.53;5054769;28;1232;-58
2022/10/17 04:43:52;;;;;;;;;;;;;;;16.34;80.63;100790.78;5054639;28;1957;-59
2022/10/17 04:46:17;;;;;;;;;;;;;;;16.35;80.33;100795.19;5054028;28;746;-60
2022/10/17 04:48:43;;;;;;;;;;;;;;;16.35;80.24;100795.19;5054565;28;936;-59
2022/10/17 04:51:12;;;;;;;;;;;;;;;16.33;80.09;100794.69;5054348;28;1289;-59
2022/10/17 04:53:38;;;;;;;;;;;;;;;16.34;80.43;100799.06;5054392;28;852;-59
2022/10/17 04:56:07;;;;;;;;;;;;;;;16.33;80.66;100792.75;5054095;28;936;-59
2022/10/17 04:58:32;;;;;;;;;;;;;;;16.34;80.84;100796.31;5054144;28;1169;-59
2022/10/17 05:00:57;;;;;;;;;;;;;;;16.32;80.32;100798.59;5054070;28;1217;-58
2022/10/17 05:03:22;;;;;;;;;;;;;;;16.33;80.93;100798.28;5054220;28;1893;-59
2022/10/17 05:05:47;;;;;;;;;;;;;;;16.32;80.40;100793.88;5053926;28;972;-62
2022/10/17 05:08:13;;;;;;;;;;;;;;;16.32;80.40;100795.81;5054109;28;1030;-59
2022/10/17 05:10:39;;;;;;;;;;;;;;;16.33;80.25;100811.28;5054129;28;976;-61
2022/10/17 05:13:04;;;;;;;;;;;;;;;16.32;80.27;100801.34;5053531;28;1124;-61
2022/10/17 05:15:29;;;;;;;;;;;;;;;16.33;80.50;100800.22;5053954;28;786;-61
2022/10/17 05:17:55;;;;;;;;;;;;;;;16.33;80.29;100803.81;5053730;28;857;-60
2022/10/17 05:20:20;;;;;;;;;;;;;;;16.32;80.13;100807.69;5053877;28;939;-59
2022/10/17 05:22:45;;;;;;;;;;;;;;;16.33;80.80;100811.28;5053633;28;1189;-60
2022/10/17 05:25:10;;;;;;;;;;;;;;;16.31;80.48;100817.09;5053720;28;1952;-58
2022/10/17 05:27:36;;;;;;;;;;;;;;;16.32;80.35;100812.41;5053417;28;980;-60
2022/10/17 05:30:02;;;;;;;;;;;;;;;16.32;80.11;100812.41;5053521;28;1010;-60
2022/10/17 05:32:27;;;;;;;;;;;;;;;16.31;80.86;100822.63;5053472;28;1291;-59
2022/10/17 05:34:52;;;;;;;;;;;;;;;16.31;80.64;100811.59;5053649;28;1046;-59
2022/10/17 05:37:17;;;;;;;;;;;;;;;16.32;79.60;100809.63;5053323;28;1044;-60
2022/10/17 05:39:42;;;;;;;;;;;;;;;16.31;80.51;100819.06;5053572;28;901;-60
2022/10/17 05:42:07;;;;;;;;;;;;;;;16.32;80.50;100820.69;5053440;28;1275;-58
2022/10/17 05:44:33;;;;;;;;;;;;;;;16.31;80.65;100811.59;5053437;28;1959;-59
2022/10/17 05:46:58;;;;;;;;;;;;;;;16.31;80.57;100822.63;5053036;28;872;-59
2022/10/17 05:49:23;;;;;;;;;;;;;;;16.31;80.29;100810.75;5053434;28;891;-60
2022/10/17 05:51:48;;;;;;;;;;;;;;;16.32;80.80;100812.41;5053235;28;1220;-58
2022/10/17 05:54:13;;;;;;;;;;;;;;;16.33;80.18;100814.03;5047888;28;1186;-59
2022/10/17 05:56:38;;;;;;;;;;;;;;;16.32;80.03;100812.41;5034077;28;1208;-59
2022/10/17 05:59:03;;;;;;;;;;;;;;;16.31;80.72;100813.53;5052480;28;1050;-59
2022/10/17 06:01:29;;;;;;;;;;;;;;;16.32;80.08;100809.63;5053191;28;1139;-58
2022/10/17 06:03:54;;;;;;;;;;;;;;;16.31;80.25;100811.59;5053137;28;1963;-60
2022/10/17 06:06:20;;;;;;;;;;;;;;;16.32;80.96;100815.16;5052813;28;1171;-59
2022/10/17 06:08:45;;;;;;;;;;;;;;;16.31;80.59;100813.53;5053284;28;944;-58
2022/10/17 06:11:11;;;;;;;;;;;;;;;16.31;80.39;100810.75;5053024;28;1274;-58
2022/10/17 06:13:37;;;;;;;;;;;;;;;16.31;80.19;100813.53;5053122;28;897;-59
2022/10/17 06:16:02;;;;;;;;;;;;;;;16.30;80.30;100818.22;5052944;28;877;-60
2022/10/17 06:18:28;;;;;;;;;;;;;;;16.31;80.16;100824.56;5052548;28;960;-58
2022/10/17 06:20:53;;;;;;;;;;;;;;;16.31;80.55;100830.91;5051799;28;1264;-58
2022/10/17 06:23:18;;;;;;;;;;;;;;;16.31;80.29;100843.91;5052236;28;1902;-59
2022/10/17 06:25:43;;;;;;;;;;;;;;;16.31;80.58;100857.72;5052267;28;840;-59
2022/10/17 06:28:09;;;;;;;;;;;;;;;16.31;80.30;100850.25;5052134;28;1042;-59
2022/10/17 06:30:36;;;;;;;;;;;;;;;16.32;80.65;100851.06;5052303;28;877;-59
2022/10/17 06:33:02;;;;;;;;;;;;;;;16.32;80.08;100864.88;5052408;28;1267;-59
2022/10/17 06:35:27;;;;;;;;;;;;;;;16.32;80.27;100862.94;5053377;28;872;-59
2022/10/17 06:37:52;;;;;;;;;;;;;;;16.32;80.59;100856.59;5052642;28;1023;-60
2022/10/17 06:40:17;;;;;;;;;;;;;;;16.31;80.30;100852.19;5052886;28;988;-60
2022/10/17 06:42:42;;;;;;;;;;;;;;;16.31;80.25;100853.03;5052782;28;1270;-60
2022/10/17 06:45:08;;;;;;;;;;;;;;;16.31;80.32;100855.78;5052700;28;1885;-59
2022/10/17 06:47:33;;;;;;;;;;;;;;;16.31;80.31;100858.53;5052712;28;927;-60
2022/10/17 06:49:58;;;;;;;;;;;;;;;16.31;80.59;100852.19;5052788;28;889;-59
2022/10/17 06:52:24;;;;;;;;;;;;;;;16.32;80.45;100859.38;5052635;28;1286;-58
2022/10/17 06:54:50;;;;;;;;;;;;;;;16.33;80.30;100861.00;5052750;28;976;-58
2022/10/17 06:57:15;;;;;;;;;;;;;;;16.32;80.19;100867.66;5052354;28;837;-58
2022/10/17 06:59:41;;;;;;;;;;;;;;;16.31;80.30;100869.59;5052690;28;836;-59
2022/10/17 07:02:08;;;;;;;;;;;;;;;16.33;80.52;100866.53;5052693;28;1264;-59
2022/10/17 07:04:33;;;;;;;;;;;;;;;16.32;80.54;100875.94;5052464;28;1894;-60
2022/10/17 07:07:01;;;;;;;;;;;;;;;16.33;80.04;100883.09;5052404;28;1039;-59
2022/10/17 07:09:27;;;;;;;;;;;;;;;16.34;80.46;100879.19;5052686;28;1671;-59
2022/10/17 07:11:52;;;;;;;;;;;;;;;16.33;80.51;100877.59;5056377;28;1268;-58
2022/10/17 07:14:17;;;;;;;;;;;;;;;16.34;80.02;100879.19;5056226;28;972;-59
2022/10/17 07:16:42;;;;;;;;;;;;;;;16.34;80.45;100890.25;5056033;28;837;-58
2022/10/17 07:19:07;;;;;;;;;;;;;;;16.33;80.62;100891.41;5056187;28;912;-58
2022/10/17 07:21:32;;;;;;;;;;;;;;;16.34;80.18;100893.81;5055893;28;1201;-58
2022/10/17 07:23:58;;;;;;;;;;;;;;;16.35;80.05;100891.88;5056071;28;1895;-58
2022/10/17 07:26:23;;;;;;;;;;;;;;;16.36;80.38;100899.88;5055828;28;980;-59
2022/10/17 07:28:50;;;;;;;;;;;;;;;16.36;80.31;100893.50;5056157;28;902;-59
2022/10/17 07:31:17;;;;;;;;;;;;;;;16.35;79.97;100895.47;5055938;28;1236;-59
2022/10/17 07:33:42;;;;;;;;;;;;;;;16.35;80.06;100898.22;5054971;28;1850;-58
2022/10/17 07:36:08;;;;;;;;;;;;;;;16.36;80.31;100899.03;5055547;28;1078;-58
2022/10/17 07:38:34;;;;;;;;;;;;;;;16.36;80.60;100907.31;5055849;28;833;-58
2022/10/17 07:41:00;;;;;;;;;;;;;;;16.36;80.28;100910.91;5055724;28;1211;-60
2022/10/17 07:43:26;;;;;;;;;;;;;;;16.35;79.98;100903.75;5055729;28;1976;-58
2022/10/17 07:45:51;;;;;;;;;;;;;;;16.37;80.51;100908.97;5055476;28;1050;-59
2022/10/17 07:48:16;;;;;;;;;;;;;;;16.36;79.86;100907.31;5055616;28;1055;-60
2022/10/17 07:50:41;;;;;;;;;;;;;;;16.36;80.20;100902.63;5055639;28;821;-59
2022/10/17 07:53:07;;;;;;;;;;;;;;;16.38;80.57;100899.56;5055522;28;1320;-59
2022/10/17 07:55:32;;;;;;;;;;;;;;;16.36;80.50;100899.03;5055672;28;810;-60
2022/10/17 07:57:59;;;;;;;;;;;;;;;16.37;80.36;100901.50;5055294;28;984;-58
2022/10/17 08:00:24;;;;;;;;;;;;;;;16.37;80.45;100907.03;5055368;28;1022;-60
2022/10/17 08:02:49;;;;;;;;;;;;;;;16.37;79.90;100907.03;5055327;28;1224;-59
2022/10/17 08:05:14;;;;;;;;;;;;;;;16.38;80.37;100900.38;5055127;28;1897;-59
2022/10/17 08:07:40;;;;;;;;;;;;;;;16.40;80.10;100916.66;5055037;28;1063;-59
2022/10/17 08:10:06;;;;;;;;;;;;;;;16.39;80.15;100921.34;5055428;28;880;-58
2022/10/17 08:12:33;;;;;;;;;;;;;;;16.40;79.67;100913.88;5055012;28;1199;-58
2022/10/17 08:14:58;;;;;;;;;;;;;;;16.39;80.10;100915.84;5055256;28;857;-59
2022/10/17 08:17:23;;;;;;;;;;;;;;;16.39;80.06;100913.06;5055341;28;1073;-58
2022/10/17 08:19:48;;;;;;;;;;;;;;;16.39;80.36;100910.31;5055003;28;849;-60
2022/10/17 08:22:14;;;;;;;;;;;;;;;16.40;79.90;100911.13;5054245;28;1293;-58
2022/10/17 08:24:39;;;;;;;;;;;;;;;16.41;80.06;100923.81;5055036;28;1897;-60
2022/10/17 08:27:10;;;;;;;;;;;;;;;16.41;79.59;100918.28;5054804;28;856;-58
2022/10/17 08:29:35;;;;;;;;;;;;;;;16.42;79.85;100911.59;5054930;28;913;-58
2022/10/17 08:32:00;;;;;;;;;;;;;;;16.43;80.40;100921.53;5054829;28;1295;-58
2022/10/17 08:34:25;;;;;;;;;;;;;;;16.42;80.15;100906.91;5054664;28;1043;-60
2022/10/17 08:36:50;;;;;;;;;;;;;;;16.43;79.66;100916.84;5054621;28;814;-59
2022/10/17 08:39:15;;;;;;;;;;;;;;;16.44;79.92;100924.00;5054690;28;885;-60
2022/10/17 08:41:46;;;;;;;;;;;;;;;16.43;80.25;100927.88;5054421;28;1187;-59
2022/10/17 08:44:17;;;;;;;;;;;;;;;16.45;79.99;100919.28;5054514;28;1902;-58
2022/10/17 08:46:45;;;;;;;;;;;;;;;16.44;79.69;100921.22;5054277;28;996;-59
2022/10/17 08:49:27;;;;;;;;;;;;;;;16.44;79.83;100914.88;5054525;28;1908;-58
2022/10/17 08:51:57;;;;;;;;;;;;;;;16.45;79.92;100908.25;5054397;28;1164;-59
2022/10/17 08:54:44;;;;;;;;;;;;;;;16.46;79.82;100904.34;5054531;28;968;-59
2022/10/17 08:57:11;;;;;;;;;;;;;;;16.46;80.12;100893.31;5053999;28;848;-61
2022/10/17 08:59:36;;;;;;;;;;;;;;;16.46;80.33;100904.34;5054327;28;878;-59
2022/10/17 09:02:22;;;;;;;;;;;;;;;16.46;80.21;100899.66;5054207;28;1294;-59
2022/10/17 09:05:06;;;;;;;;;;;;;;;16.46;79.84;100902.41;5053910;28;1906;-59
2022/10/17 09:07:31;;;;;;;;;;;;;;;16.47;79.62;100906.00;5053909;28;889;-59
2022/10/17 09:10:02;;;;;;;;;;;;;;;16.47;79.71;100906.00;5053991;28;877;-59
2022/10/17 09:12:48;;;;;;;;;;;;;;;16.47;79.62;100898.53;5053953;28;1304;-59
2022/10/17 09:15:19;;;;;;;;;;;;;;;16.47;79.95;100890.22;5054061;28;1112;-58
2022/10/17 09:17:51;;;;;;;;;;;;;;;16.49;79.97;100892.69;5053635;28;881;-60
2022/10/17 09:20:16;;;;;;;;;;;;;;;16.49;79.62;100896.28;5053947;28;814;-59
2022/10/17 09:22:46;;;;;;;;;;;;;;;16.49;80.00;100887.97;5053711;28;1210;-58
2022/10/17 09:25:14;;;;;;;;;;;;;;;16.49;79.17;100882.44;5053747;28;1959;-59
2022/10/17 09:27:41;;;;;;;;;;;;;;;16.50;80.22;100886.03;5053354;28;1746;-59
2022/10/17 09:30:25;;;;;;;;;;;;;;;16.50;79.62;100886.03;5053802;28;845;-61
2022/10/17 09:32:51;;;;;;;;;;;;;;;16.50;79.66;100883.28;5053216;28;1184;-60
2022/10/17 09:35:18;;;;;;;;;;;;;;;16.51;79.88;100884.88;5051932;28;944;-59
2022/10/17 09:37:44;;;;;;;;;;;;;;;16.51;80.07;100888.47;5053482;28;812;-58
2022/10/17 09:40:15;;;;;;;;;;;;;;;16.53;80.09;100890.94;5053621;28;876;-60
2022/10/17 09:42:40;;;;;;;;;;;;;;;16.52;80.04;100887.34;5053808;28;1890;-58
2022/10/17 09:45:15;;;;;;;;;;;;;;;16.51;79.66;100896.75;5053386;28;1890;-60
2022/10/17 09:47:44;;;;;;;;;;;;;;;16.52;79.65;100892.88;5053401;28;912;-58
2022/10/17 09:50:20;;;;;;;;;;;;;;;16.54;79.90;100906.38;5053444;28;889;-59
2022/10/17 09:52:48;;;;;;;;;;;;;;;16.52;79.83;100895.63;5053363;28;1390;-59
2022/10/17 09:55:19;;;;;;;;;;;;;;;16.53;79.99;100888.16;5053381;28;885;-61
2022/10/17 09:57:51;;;;;;;;;;;;;;;16.54;79.99;100895.31;5052877;28;880;-60
2022/10/17 10:00:20;;;;;;;;;;;;;;;16.54;79.60;100884.28;5053351;28;1000;-59
2022/10/17 10:02:45;;;;;;;;;;;;;;;16.54;79.58;100889.81;5053140;28;1212;-60
2022/10/17 10:05:15;;;;;;;;;;;;;;;16.56;79.94;100890.31;5053598;28;1902;-59
2022/10/17 10:07:41;;;;;;;;;;;;;;;16.56;79.43;100882.84;5052907;28;865;-58
2022/10/17 10:10:21;;;;;;;;;;;;;;;16.57;79.69;100894.72;5053074;28;933;-58
2022/10/17 10:13:00;;;;;;;;;;;;;;;16.55;79.21;100889.50;5053071;28;1237;-58
2022/10/17 10:15:31;;;;;;;;;;;;;;;16.57;79.54;100886.44;5053223;28;948;-60
2022/10/17 10:17:56;;;;;;;;;;;;;;;16.57;79.65;100891.94;5052916;28;924;-60
2022/10/17 10:20:29;;;;;;;;;;;;;;;16.58;80.08;100896.34;5053041;28;1047;-60
2022/10/17 10:23:05;;;;;;;;;;;;;;;16.59;79.96;100903.50;5052833;28;1351;-60
2022/10/17 10:25:30;;;;;;;;;;;;;;;16.60;80.02;100894.06;5052872;28;1798;-59
2022/10/17 10:27:55;;;;;;;;;;;;;;;16.60;79.40;100894.91;5052792;28;884;-59
2022/10/17 10:30:24;;;;;;;;;;;;;;;16.60;79.45;100885.78;5053018;28;976;-58
2022/10/17 10:32:49;;;;;;;;;;;;;;;16.60;79.47;100897.66;5052867;28;1216;-58
2022/10/17 10:35:22;;;;;;;;;;;;;;;16.60;80.09;100899.59;5052785;28;794;-59
2022/10/17 10:37:52;;;;;;;;;;;;;;;16.61;79.77;100892.97;5052774;28;794;-58
2022/10/17 10:40:20;;;;;;;;;;;;;;;16.60;79.59;100899.59;5052981;28;917;-59
2022/10/17 10:42:46;;;;;;;;;;;;;;;16.61;79.51;100901.28;5052805;28;1171;-60
2022/10/17 10:45:17;;;;;;;;;;;;;;;16.63;79.59;100904.56;5054113;28;1890;-59
2022/10/17 10:48:03;;;;;;;;;;;;;;;16.62;79.61;100898.19;5056435;28;1654;-59
2022/10/17 10:50:31;;;;;;;;;;;;;;;16.61;80.04;100896.56;5056516;28;1880;-58
2022/10/17 10:53:16;;;;;;;;;;;;;;;16.63;79.58;100899.84;5056559;28;1257;-59
2022/10/17 10:55:56;;;;;;;;;;;;;;;16.64;79.81;100889.59;5056674;28;825;-60
2022/10/17 10:58:38;;;;;;;;;;;;;;;16.63;79.32;100899.03;5056699;28;1282;-60
2022/10/17 11:01:13;;;;;;;;;;;;;;;16.64;80.14;100898.72;5056513;28;1284;-58
2022/10/17 11:03:41;;;;;;;;;;;;;;;16.64;79.94;100907.00;5056482;28;1961;-60
2022/10/17 11:06:15;;;;;;;;;;;;;;;16.64;79.30;100907.00;5056232;28;821;-59
2022/10/17 11:08:43;;;;;;;;;;;;;;;16.66;80.06;100908.66;5056315;28;1011;-58
2022/10/17 11:11:16;;;;;;;;;;;;;;;16.66;79.45;100900.34;5056517;28;1221;-59
2022/10/17 11:13:45;;;;;;;;;;;;;;;16.66;79.99;100903.94;5056430;28;853;-60
2022/10/17 11:16:33;;;;;;;;;;;;;;;16.66;79.38;100909.47;5056083;28;864;-58
2022/10/17 11:19:17;;;;;;;;;;;;;;;16.67;79.46;100882.66;5055548;28;1231;-59
2022/10/17 11:21:48;;;;;;;;;;;;;;;16.68;79.99;100881.50;5055896;28;1272;-58
2022/10/17 11:24:22;;;;;;;;;;;;;;;16.68;79.95;100892.53;5056048;28;1894;-59
2022/10/17 11:27:01;;;;;;;;;;;;;;;16.68;79.58;100898.91;5056084;28;688;-59
2022/10/17 11:29:28;;;;;;;;;;;;;;;16.69;79.44;100903.28;5056041;28;1038;-57
2022/10/17 11:31:55;;;;;;;;;;;;;;;16.70;79.73;100904.94;5055895;28;1689;-60
2022/10/17 11:34:28;;;;;;;;;;;;;;;16.71;80.17;100889.16;5056090;28;1055;-58
2022/10/17 11:36:57;;;;;;;;;;;;;;;16.71;79.45;100892.75;5055564;28;709;-59
2022/10/17 11:39:33;;;;;;;;;;;;;;;16.72;79.84;100901.88;5056055;28;967;-59
2022/10/17 11:42:02;;;;;;;;;;;;;;;16.71;79.42;100908.53;5055638;28;1213;-59
2022/10/17 11:44:30;;;;;;;;;;;;;;;16.73;79.38;100909.84;5055868;28;1894;-60
2022/10/17 11:46:58;;;;;;;;;;;;;;;16.74;79.81;100917.03;5055793;28;808;-58
2022/10/17 11:49:27;;;;;;;;;;;;;;;16.75;79.88;100917.84;5055669;28;1070;-59
2022/10/17 11:51:52;;;;;;;;;;;;;;;16.76;79.29;100913.94;5055563;28;1278;-58
2022/10/17 11:54:23;;;;;;;;;;;;;;;16.76;79.97;100919.47;5055582;28;992;-58
2022/10/17 11:56:48;;;;;;;;;;;;;;;16.78;79.56;100911.66;5054202;28;1023;-59
2022/10/17 11:59:32;;;;;;;;;;;;;;;16.78;79.72;100906.97;5055678;28;797;-59
2022/10/17 12:02:02;;;;;;;;;;;;;;;16.79;79.97;100908.59;5055310;28;1217;-58
2022/10/17 12:05:01;;;;;;;;;;;;;;;16.79;79.90;100919.66;5055367;28;1960;-58
2022/10/17 12:07:35;;;;;;;;;;;;;;;16.80;80.12;100918.53;5053491;28;1480;-60
2022/10/17 12:10:17;;;;;;;;;;;;;;;16.81;79.14;100916.59;5055401;28;857;-59
2022/10/17 12:12:43;;;;;;;;;;;;;;;16.83;79.00;100917.09;5055195;28;1159;-60
2022/10/17 12:15:23;;;;;;;;;;;;;;;16.83;79.21;100914.34;5055137;28;846;-59
2022/10/17 12:17:56;;;;;;;;;;;;;;;16.81;79.57;100922.94;5054813;28;933;-58
2022/10/17 12:20:24;;;;;;;;;;;;;;;16.82;79.56;100926.50;5055189;28;872;-60
2022/10/17 12:22:51;;;;;;;;;;;;;;;16.83;79.89;100926.22;5054828;28;1301;-58
2022/10/17 12:25:21;;;;;;;;;;;;;;;16.83;79.04;100936.44;5055022;28;1961;-58
2022/10/17 12:27:47;;;;;;;;;;;;;;;16.83;79.82;100937.28;5054604;28;909;-58
2022/10/17 12:30:15;;;;;;;;;;;;;;;16.83;79.08;100939.22;5055130;28;840;-58
2022/10/17 12:32:52;;;;;;;;;;;;;;;16.83;79.44;100930.91;5054990;28;1298;-59
2022/10/17 12:35:19;;;;;;;;;;;;;;;16.84;79.44;100938.88;5054865;28;818;-58
2022/10/17 12:37:44;;;;;;;;;;;;;;;16.84;79.63;100972.06;5054564;28;852;-58
2022/10/17 12:40:38;;;;;;;;;;;;;;;16.85;79.02;100940.50;5054579;28;889;-59
2022/10/17 12:43:13;;;;;;;;;;;;;;;16.84;79.37;100949.94;5054825;28;1162;-59
2022/10/17 12:45:47;;;;;;;;;;;;;;;16.86;79.22;100955.16;5054580;28;988;-58
2022/10/17 12:48:32;;;;;;;;;;;;;;;16.86;79.26;100955.16;5054572;28;988;-58
2022/10/17 12:51:00;;;;;;;;;;;;;;;16.86;79.65;100949.63;5054254;28;1289;-60
2022/10/17 12:53:28;;;;;;;;;;;;;;;16.87;79.67;100952.09;5054472;28;1015;-58
2022/10/17 12:55:59;;;;;;;;;;;;;;;16.87;79.19;100946.56;5054092;28;853;-61
2022/10/17 12:58:25;;;;;;;;;;;;;;;16.87;79.42;100949.31;5054411;28;1070;-58